sensor_id;sensor_type;location;lat;lon;timestamp;P1;durP1;ratioP1;P2;durP2;ratioP2
65469;SDS011;52067;50.710;14.492;2023-06-14T00:02:11;8.95;;;4.93;;
65469;SDS011;52067;50.710;14.492;2023-06-14T00:04:36;6.53;;;4.88;;
65469;SDS011;52067;50.710;14.492;2023-06-14T00:07:02;7.32;;;4.28;;
65469;SDS011;52067;50.710;14.492;2023-06-14T00:09:28;7.60;;;5.13;;
65469;SDS011;52067;50.710;14.492;2023-06-14T00:11:53;6.93;;;4.50;;
65469;SDS011;52067;50.710;14.492;2023-06-14T00:14:19;10.13;;;5.03;;
65469;SDS011;52067;50.710;14.492;2023-06-14T00:16:44;8.90;;;5.93;;
65469;SDS011;52067;50.710;14.492;2023-06-14T00:19:09;10.45;;;5.72;;
65469;SDS011;52067;50.710;14.492;2023-06-14T00:21:36;11.93;;;5.95;;
65469;SDS011;52067;50.710;14.492;2023-06-14T00:24:02;11.13;;;5.90;;
65469;SDS011;52067;50.710;14.492;2023-06-14T00:26:29;14.00;;;6.32;;
65469;SDS011;52067;50.710;14.492;2023-06-14T00:28:55;14.48;;;6.72;;
65469;SDS011;52067;50.710;14.492;2023-06-14T00:31:21;16.30;;;6.45;;
65469;SDS011;52067;50.710;14.492;2023-06-14T00:33:47;12.20;;;5.75;;
65469;SDS011;52067;50.710;14.492;2023-06-14T00:36:13;8.63;;;5.03;;
65469;SDS011;52067;50.710;14.492;2023-06-14T00:38:38;6.88;;;5.03;;
65469;SDS011;52067;50.710;14.492;2023-06-14T00:41:04;11.13;;;5.05;;
65469;SDS011;52067;50.710;14.492;2023-06-14T00:43:29;10.18;;;5.53;;
65469;SDS011;52067;50.710;14.492;2023-06-14T00:45:55;10.07;;;4.93;;
65469;SDS011;52067;50.710;14.492;2023-06-14T00:48:20;9.77;;;5.60;;
65469;SDS011;52067;50.710;14.492;2023-06-14T00:50:46;13.25;;;6.13;;
65469;SDS011;52067;50.710;14.492;2023-06-14T00:53:14;11.88;;;5.97;;
65469;SDS011;52067;50.710;14.492;2023-06-14T00:55:42;12.02;;;5.32;;
65469;SDS011;52067;50.710;14.492;2023-06-14T00:58:08;14.80;;;5.13;;
65469;SDS011;52067;50.710;14.492;2023-06-14T01:00:35;12.05;;;5.65;;
65469;SDS011;52067;50.710;14.492;2023-06-14T01:03:01;10.27;;;5.40;;
65469;SDS011;52067;50.710;14.492;2023-06-14T01:05:27;12.52;;;5.05;;
65469;SDS011;52067;50.710;14.492;2023-06-14T01:08:11;10.02;;;4.70;;
65469;SDS011;52067;50.710;14.492;2023-06-14T01:16:15;10.68;;;5.50;;
65469;SDS011;52067;50.710;14.492;2023-06-14T01:18:42;9.45;;;5.47;;
65469;SDS011;52067;50.710;14.492;2023-06-14T01:21:25;15.18;;;5.53;;
65469;SDS011;52067;50.710;14.492;2023-06-14T01:23:51;9.23;;;5.05;;
65469;SDS011;52067;50.710;14.492;2023-06-14T01:26:24;11.93;;;5.68;;
65469;SDS011;52067;50.710;14.492;2023-06-14T01:28:51;9.27;;;5.20;;
65469;SDS011;52067;50.710;14.492;2023-06-14T01:31:23;11.02;;;5.50;;
65469;SDS011;52067;50.710;14.492;2023-06-14T01:33:49;9.57;;;5.20;;
65469;SDS011;52067;50.710;14.492;2023-06-14T01:36:16;12.13;;;4.90;;
65469;SDS011;52067;50.710;14.492;2023-06-14T01:38:44;8.38;;;4.57;;
65469;SDS011;52067;50.710;14.492;2023-06-14T01:41:11;8.73;;;4.90;;
65469;SDS011;52067;50.710;14.492;2023-06-14T01:43:38;10.05;;;4.82;;
65469;SDS011;52067;50.710;14.492;2023-06-14T01:46:05;8.05;;;5.30;;
65469;SDS011;52067;50.710;14.492;2023-06-14T01:48:31;9.85;;;5.38;;
65469;SDS011;52067;50.710;14.492;2023-06-14T01:50:57;7.38;;;5.05;;
65469;SDS011;52067;50.710;14.492;2023-06-14T01:53:22;7.90;;;4.75;;
65469;SDS011;52067;50.710;14.492;2023-06-14T01:55:48;8.00;;;4.95;;
65469;SDS011;52067;50.710;14.492;2023-06-14T01:58:13;7.15;;;5.10;;
65469;SDS011;52067;50.710;14.492;2023-06-14T02:00:41;6.57;;;4.75;;
65469;SDS011;52067;50.710;14.492;2023-06-14T02:03:08;9.55;;;4.85;;
65469;SDS011;52067;50.710;14.492;2023-06-14T02:05:33;7.50;;;5.07;;
65469;SDS011;52067;50.710;14.492;2023-06-14T02:07:59;6.68;;;4.80;;
65469;SDS011;52067;50.710;14.492;2023-06-14T02:10:25;7.78;;;4.50;;
65469;SDS011;52067;50.710;14.492;2023-06-14T02:12:50;11.15;;;4.95;;
65469;SDS011;52067;50.710;14.492;2023-06-14T02:15:16;9.30;;;4.38;;
65469;SDS011;52067;50.710;14.492;2023-06-14T02:17:47;7.07;;;3.78;;
65469;SDS011;52067;50.710;14.492;2023-06-14T02:20:14;6.60;;;4.38;;
65469;SDS011;52067;50.710;14.492;2023-06-14T02:22:40;5.93;;;4.38;;
65469;SDS011;52067;50.710;14.492;2023-06-14T02:25:05;7.20;;;4.38;;
65469;SDS011;52067;50.710;14.492;2023-06-14T02:27:32;11.40;;;5.10;;
65469;SDS011;52067;50.710;14.492;2023-06-14T02:29:57;8.65;;;5.03;;
65469;SDS011;52067;50.710;14.492;2023-06-14T02:32:23;7.00;;;4.43;;
65469;SDS011;52067;50.710;14.492;2023-06-14T02:34:48;7.30;;;4.75;;
65469;SDS011;52067;50.710;14.492;2023-06-14T02:37:15;9.10;;;5.13;;
65469;SDS011;52067;50.710;14.492;2023-06-14T02:39:41;7.15;;;4.85;;
65469;SDS011;52067;50.710;14.492;2023-06-14T02:42:06;8.32;;;4.50;;
65469;SDS011;52067;50.710;14.492;2023-06-14T02:44:32;11.00;;;4.72;;
65469;SDS011;52067;50.710;14.492;2023-06-14T02:46:57;10.50;;;5.20;;
65469;SDS011;52067;50.710;14.492;2023-06-14T02:49:25;7.35;;;4.50;;
65469;SDS011;52067;50.710;14.492;2023-06-14T02:51:51;9.23;;;4.40;;
65469;SDS011;52067;50.710;14.492;2023-06-14T02:54:16;6.90;;;5.00;;
65469;SDS011;52067;50.710;14.492;2023-06-14T02:56:41;8.82;;;4.80;;
65469;SDS011;52067;50.710;14.492;2023-06-14T02:59:07;8.20;;;4.72;;
65469;SDS011;52067;50.710;14.492;2023-06-14T03:01:34;7.90;;;4.90;;
65469;SDS011;52067;50.710;14.492;2023-06-14T03:04:02;9.27;;;4.90;;
65469;SDS011;52067;50.710;14.492;2023-06-14T03:06:28;9.13;;;4.90;;
65469;SDS011;52067;50.710;14.492;2023-06-14T03:08:55;8.85;;;4.55;;
65469;SDS011;52067;50.710;14.492;2023-06-14T03:11:24;7.03;;;5.05;;
65469;SDS011;52067;50.710;14.492;2023-06-14T03:13:53;7.05;;;4.53;;
65469;SDS011;52067;50.710;14.492;2023-06-14T03:16:20;7.88;;;4.15;;
65469;SDS011;52067;50.710;14.492;2023-06-14T03:18:48;13.88;;;4.82;;
65469;SDS011;52067;50.710;14.492;2023-06-14T03:21:14;7.00;;;4.40;;
65469;SDS011;52067;50.710;14.492;2023-06-14T03:23:41;6.90;;;4.90;;
65469;SDS011;52067;50.710;14.492;2023-06-14T03:26:07;8.40;;;5.15;;
65469;SDS011;52067;50.710;14.492;2023-06-14T03:28:33;9.50;;;5.30;;
65469;SDS011;52067;50.710;14.492;2023-06-14T03:30:58;6.90;;;4.68;;
65469;SDS011;52067;50.710;14.492;2023-06-14T03:33:23;8.13;;;5.18;;
65469;SDS011;52067;50.710;14.492;2023-06-14T03:35:50;8.52;;;4.68;;
65469;SDS011;52067;50.710;14.492;2023-06-14T03:38:16;9.57;;;4.45;;
65469;SDS011;52067;50.710;14.492;2023-06-14T03:40:41;10.05;;;5.03;;
65469;SDS011;52067;50.710;14.492;2023-06-14T03:43:06;8.80;;;4.70;;
65469;SDS011;52067;50.710;14.492;2023-06-14T03:45:32;8.70;;;4.75;;
65469;SDS011;52067;50.710;14.492;2023-06-14T03:47:57;11.10;;;5.05;;
65469;SDS011;52067;50.710;14.492;2023-06-14T03:50:23;10.05;;;5.95;;
65469;SDS011;52067;50.710;14.492;2023-06-14T03:52:49;13.20;;;6.15;;
65469;SDS011;52067;50.710;14.492;2023-06-14T03:55:15;9.20;;;5.88;;
65469;SDS011;52067;50.710;14.492;2023-06-14T03:57:41;8.93;;;5.57;;
65469;SDS011;52067;50.710;14.492;2023-06-14T04:00:07;9.27;;;5.88;;
65469;SDS011;52067;50.710;14.492;2023-06-14T04:02:34;10.30;;;5.72;;
65469;SDS011;52067;50.710;14.492;2023-06-14T04:05:01;11.05;;;5.43;;
65469;SDS011;52067;50.710;14.492;2023-06-14T04:07:27;8.65;;;5.70;;
65469;SDS011;52067;50.710;14.492;2023-06-14T04:09:53;12.88;;;5.53;;
65469;SDS011;52067;50.710;14.492;2023-06-14T04:12:19;11.02;;;5.68;;
65469;SDS011;52067;50.710;14.492;2023-06-14T04:14:45;9.40;;;5.93;;
65469;SDS011;52067;50.710;14.492;2023-06-14T04:17:10;10.57;;;5.25;;
65469;SDS011;52067;50.710;14.492;2023-06-14T04:19:36;7.30;;;5.15;;
65469;SDS011;52067;50.710;14.492;2023-06-14T04:22:01;10.63;;;5.28;;
65469;SDS011;52067;50.710;14.492;2023-06-14T04:24:27;6.60;;;5.13;;
65469;SDS011;52067;50.710;14.492;2023-06-14T04:26:57;10.45;;;5.20;;
65469;SDS011;52067;50.710;14.492;2023-06-14T04:29:23;10.38;;;5.75;;
65469;SDS011;52067;50.710;14.492;2023-06-14T04:31:53;12.23;;;5.82;;
65469;SDS011;52067;50.710;14.492;2023-06-14T04:34:19;9.00;;;5.85;;
65469;SDS011;52067;50.710;14.492;2023-06-14T04:36:46;9.68;;;6.10;;
65469;SDS011;52067;50.710;14.492;2023-06-14T04:39:18;12.80;;;5.82;;
65469;SDS011;52067;50.710;14.492;2023-06-14T04:41:44;12.57;;;5.75;;
65469;SDS011;52067;50.710;14.492;2023-06-14T04:44:10;11.07;;;5.68;;
65469;SDS011;52067;50.710;14.492;2023-06-14T04:46:36;11.25;;;5.93;;
65469;SDS011;52067;50.710;14.492;2023-06-14T04:49:21;7.72;;;5.60;;
65469;SDS011;52067;50.710;14.492;2023-06-14T04:51:48;9.38;;;5.85;;
65469;SDS011;52067;50.710;14.492;2023-06-14T04:54:22;9.18;;;5.63;;
65469;SDS011;52067;50.710;14.492;2023-06-14T04:56:49;7.53;;;5.38;;
65469;SDS011;52067;50.710;14.492;2023-06-14T04:59:15;7.78;;;4.90;;
65469;SDS011;52067;50.710;14.492;2023-06-14T05:01:42;10.73;;;5.30;;
65469;SDS011;52067;50.710;14.492;2023-06-14T05:04:16;9.15;;;5.30;;
65469;SDS011;52067;50.710;14.492;2023-06-14T05:06:42;11.38;;;5.97;;
65469;SDS011;52067;50.710;14.492;2023-06-14T05:09:13;15.63;;;5.70;;
65469;SDS011;52067;50.710;14.492;2023-06-14T05:11:39;7.55;;;5.07;;
65469;SDS011;52067;50.710;14.492;2023-06-14T05:14:09;8.57;;;5.32;;
65469;SDS011;52067;50.710;14.492;2023-06-14T05:16:35;13.23;;;5.07;;
65469;SDS011;52067;50.710;14.492;2023-06-14T05:19:01;7.13;;;5.20;;
65469;SDS011;52067;50.710;14.492;2023-06-14T05:21:27;7.65;;;4.63;;
65469;SDS011;52067;50.710;14.492;2023-06-14T05:23:53;12.02;;;5.07;;
65469;SDS011;52067;50.710;14.492;2023-06-14T05:26:19;8.10;;;5.13;;
65469;SDS011;52067;50.710;14.492;2023-06-14T05:28:44;6.35;;;4.57;;
65469;SDS011;52067;50.710;14.492;2023-06-14T05:31:10;10.25;;;4.93;;
65469;SDS011;52067;50.710;14.492;2023-06-14T05:33:35;6.55;;;4.90;;
65469;SDS011;52067;50.710;14.492;2023-06-14T05:36:00;10.68;;;4.75;;
65469;SDS011;52067;50.710;14.492;2023-06-14T05:38:26;6.88;;;4.68;;
65469;SDS011;52067;50.710;14.492;2023-06-14T05:40:51;11.07;;;4.78;;
65469;SDS011;52067;50.710;14.492;2023-06-14T05:43:17;6.70;;;4.88;;
65469;SDS011;52067;50.710;14.492;2023-06-14T05:45:42;7.88;;;4.95;;
65469;SDS011;52067;50.710;14.492;2023-06-14T05:48:07;9.75;;;4.95;;
65469;SDS011;52067;50.710;14.492;2023-06-14T05:50:33;10.77;;;5.10;;
65469;SDS011;52067;50.710;14.492;2023-06-14T05:52:58;9.30;;;5.13;;
65469;SDS011;52067;50.710;14.492;2023-06-14T05:55:24;6.88;;;4.97;;
65469;SDS011;52067;50.710;14.492;2023-06-14T05:57:50;6.32;;;4.40;;
65469;SDS011;52067;50.710;14.492;2023-06-14T06:00:15;6.95;;;4.82;;
65469;SDS011;52067;50.710;14.492;2023-06-14T06:02:41;7.30;;;5.05;;
65469;SDS011;52067;50.710;14.492;2023-06-14T06:05:11;9.02;;;4.82;;
65469;SDS011;52067;50.710;14.492;2023-06-14T06:07:38;8.88;;;4.88;;
65469;SDS011;52067;50.710;14.492;2023-06-14T06:10:05;6.55;;;4.95;;
65469;SDS011;52067;50.710;14.492;2023-06-14T06:12:31;7.00;;;4.95;;
65469;SDS011;52067;50.710;14.492;2023-06-14T06:14:57;8.80;;;4.70;;
65469;SDS011;52067;50.710;14.492;2023-06-14T06:17:23;6.78;;;4.88;;
65469;SDS011;52067;50.710;14.492;2023-06-14T06:19:48;7.13;;;5.00;;
65469;SDS011;52067;50.710;14.492;2023-06-14T06:22:14;7.28;;;4.95;;
65469;SDS011;52067;50.710;14.492;2023-06-14T06:24:39;9.00;;;4.97;;
65469;SDS011;52067;50.710;14.492;2023-06-14T06:27:05;9.00;;;4.68;;
65469;SDS011;52067;50.710;14.492;2023-06-14T06:29:33;6.70;;;4.30;;
65469;SDS011;52067;50.710;14.492;2023-06-14T06:31:58;6.63;;;4.72;;
65469;SDS011;52067;50.710;14.492;2023-06-14T06:34:23;9.07;;;4.80;;
65469;SDS011;52067;50.710;14.492;2023-06-14T06:36:49;5.95;;;4.45;;
65469;SDS011;52067;50.710;14.492;2023-06-14T06:39:14;5.93;;;4.25;;
65469;SDS011;52067;50.710;14.492;2023-06-14T06:41:40;7.20;;;4.38;;
65469;SDS011;52067;50.710;14.492;2023-06-14T06:44:06;7.85;;;4.50;;
65469;SDS011;52067;50.710;14.492;2023-06-14T06:46:32;8.65;;;4.78;;
65469;SDS011;52067;50.710;14.492;2023-06-14T06:48:58;7.30;;;4.95;;
65469;SDS011;52067;50.710;14.492;2023-06-14T06:51:24;6.45;;;4.50;;
65469;SDS011;52067;50.710;14.492;2023-06-14T06:53:53;9.35;;;4.40;;
65469;SDS011;52067;50.710;14.492;2023-06-14T06:56:19;10.57;;;4.05;;
65469;SDS011;52067;50.710;14.492;2023-06-14T06:58:46;8.60;;;4.45;;
65469;SDS011;52067;50.710;14.492;2023-06-14T07:01:12;6.55;;;4.03;;
65469;SDS011;52067;50.710;14.492;2023-06-14T07:03:38;6.25;;;3.70;;
65469;SDS011;52067;50.710;14.492;2023-06-14T07:06:03;5.88;;;3.60;;
65469;SDS011;52067;50.710;14.492;2023-06-14T07:08:29;5.20;;;3.97;;
65469;SDS011;52067;50.710;14.492;2023-06-14T07:10:55;4.97;;;4.00;;
65469;SDS011;52067;50.710;14.492;2023-06-14T07:13:20;6.53;;;3.95;;
65469;SDS011;52067;50.710;14.492;2023-06-14T07:15:46;6.13;;;4.63;;
65469;SDS011;52067;50.710;14.492;2023-06-14T07:18:11;7.45;;;4.07;;
65469;SDS011;52067;50.710;14.492;2023-06-14T07:20:37;7.85;;;4.53;;
65469;SDS011;52067;50.710;14.492;2023-06-14T07:23:03;10.65;;;4.70;;
65469;SDS011;52067;50.710;14.492;2023-06-14T07:25:29;8.55;;;4.72;;
65469;SDS011;52067;50.710;14.492;2023-06-14T07:27:55;6.47;;;4.57;;
65469;SDS011;52067;50.710;14.492;2023-06-14T07:30:20;7.10;;;4.47;;
65469;SDS011;52067;50.710;14.492;2023-06-14T07:32:46;7.55;;;4.60;;
65469;SDS011;52067;50.710;14.492;2023-06-14T07:35:11;8.63;;;4.82;;
65469;SDS011;52067;50.710;14.492;2023-06-14T07:37:36;6.05;;;3.90;;
65469;SDS011;52067;50.710;14.492;2023-06-14T07:40:02;8.30;;;4.15;;
65469;SDS011;52067;50.710;14.492;2023-06-14T07:42:32;7.43;;;4.28;;
65469;SDS011;52067;50.710;14.492;2023-06-14T07:45:03;5.55;;;3.63;;
65469;SDS011;52067;50.710;14.492;2023-06-14T07:47:29;4.60;;;3.47;;
65469;SDS011;52067;50.710;14.492;2023-06-14T07:49:58;4.43;;;3.30;;
65469;SDS011;52067;50.710;14.492;2023-06-14T07:52:24;8.13;;;3.30;;
65469;SDS011;52067;50.710;14.492;2023-06-14T07:54:50;4.88;;;3.30;;
65469;SDS011;52067;50.710;14.492;2023-06-14T07:57:15;7.88;;;3.30;;
65469;SDS011;52067;50.710;14.492;2023-06-14T07:59:40;4.35;;;3.40;;
65469;SDS011;52067;50.710;14.492;2023-06-14T08:02:06;6.93;;;3.15;;
65469;SDS011;52067;50.710;14.492;2023-06-14T08:04:31;6.22;;;3.03;;
65469;SDS011;52067;50.710;14.492;2023-06-14T08:06:58;4.95;;;3.30;;
65469;SDS011;52067;50.710;14.492;2023-06-14T08:09:24;4.72;;;3.30;;
65469;SDS011;52067;50.710;14.492;2023-06-14T08:11:50;6.43;;;3.05;;
65469;SDS011;52067;50.710;14.492;2023-06-14T08:14:15;5.78;;;3.17;;
65469;SDS011;52067;50.710;14.492;2023-06-14T08:16:41;7.15;;;3.53;;
65469;SDS011;52067;50.710;14.492;2023-06-14T08:19:07;4.40;;;2.80;;
65469;SDS011;52067;50.710;14.492;2023-06-14T08:21:32;5.40;;;3.35;;
65469;SDS011;52067;50.710;14.492;2023-06-14T08:23:58;7.32;;;3.38;;
65469;SDS011;52067;50.710;14.492;2023-06-14T08:26:24;5.90;;;3.42;;
65469;SDS011;52067;50.710;14.492;2023-06-14T08:28:53;5.25;;;3.45;;
65469;SDS011;52067;50.710;14.492;2023-06-14T08:31:19;4.32;;;2.95;;
65469;SDS011;52067;50.710;14.492;2023-06-14T08:33:45;5.45;;;3.50;;
65469;SDS011;52067;50.710;14.492;2023-06-14T08:36:10;6.10;;;3.58;;
65469;SDS011;52067;50.710;14.492;2023-06-14T08:38:37;5.75;;;3.45;;
65469;SDS011;52067;50.710;14.492;2023-06-14T08:41:02;6.53;;;3.33;;
65469;SDS011;52067;50.710;14.492;2023-06-14T08:43:30;5.60;;;3.10;;
65469;SDS011;52067;50.710;14.492;2023-06-14T08:46:00;6.47;;;2.88;;
65469;SDS011;52067;50.710;14.492;2023-06-14T08:48:27;5.57;;;3.30;;
65469;SDS011;52067;50.710;14.492;2023-06-14T08:50:56;5.60;;;3.50;;
65469;SDS011;52067;50.710;14.492;2023-06-14T08:53:32;5.05;;;3.17;;
65469;SDS011;52067;50.710;14.492;2023-06-14T08:55:59;6.38;;;3.60;;
65469;SDS011;52067;50.710;14.492;2023-06-14T08:58:30;4.15;;;2.65;;
65469;SDS011;52067;50.710;14.492;2023-06-14T09:01:05;7.65;;;3.33;;
65469;SDS011;52067;50.710;14.492;2023-06-14T09:03:32;6.90;;;3.53;;
65469;SDS011;52067;50.710;14.492;2023-06-14T09:05:58;6.47;;;3.50;;
65469;SDS011;52067;50.710;14.492;2023-06-14T09:08:27;4.57;;;2.72;;
65469;SDS011;52067;50.710;14.492;2023-06-14T09:10:55;7.53;;;4.90;;
65469;SDS011;52067;50.710;14.492;2023-06-14T09:13:21;8.18;;;4.55;;
65469;SDS011;52067;50.710;14.492;2023-06-14T09:15:46;5.45;;;3.60;;
65469;SDS011;52067;50.710;14.492;2023-06-14T09:18:12;12.88;;;3.17;;
65469;SDS011;52067;50.710;14.492;2023-06-14T09:20:37;4.57;;;3.47;;
65469;SDS011;52067;50.710;14.492;2023-06-14T09:23:03;4.63;;;2.78;;
65469;SDS011;52067;50.710;14.492;2023-06-14T09:25:30;7.25;;;3.50;;
65469;SDS011;52067;50.710;14.492;2023-06-14T09:27:55;5.85;;;3.72;;
65469;SDS011;52067;50.710;14.492;2023-06-14T09:30:21;4.28;;;3.00;;
65469;SDS011;52067;50.710;14.492;2023-06-14T09:32:46;7.45;;;3.47;;
65469;SDS011;52067;50.710;14.492;2023-06-14T09:35:12;6.47;;;3.10;;
65469;SDS011;52067;50.710;14.492;2023-06-14T09:37:37;6.10;;;3.60;;
65469;SDS011;52067;50.710;14.492;2023-06-14T09:40:04;5.85;;;2.92;;
65469;SDS011;52067;50.710;14.492;2023-06-14T09:42:30;7.20;;;3.45;;
65469;SDS011;52067;50.710;14.492;2023-06-14T09:44:56;4.65;;;3.20;;
65469;SDS011;52067;50.710;14.492;2023-06-14T09:47:22;7.28;;;3.90;;
65469;SDS011;52067;50.710;14.492;2023-06-14T09:49:48;5.13;;;3.55;;
65469;SDS011;52067;50.710;14.492;2023-06-14T09:52:18;15.23;;;3.70;;
65469;SDS011;52067;50.710;14.492;2023-06-14T09:54:45;6.75;;;3.88;;
65469;SDS011;52067;50.710;14.492;2023-06-14T09:57:12;6.13;;;3.88;;
65469;SDS011;52067;50.710;14.492;2023-06-14T09:59:42;5.38;;;3.55;;
65469;SDS011;52067;50.710;14.492;2023-06-14T10:02:15;6.30;;;3.90;;
65469;SDS011;52067;50.710;14.492;2023-06-14T10:04:49;6.55;;;3.70;;
65469;SDS011;52067;50.710;14.492;2023-06-14T10:07:22;5.38;;;3.83;;
65469;SDS011;52067;50.710;14.492;2023-06-14T10:09:52;6.50;;;4.20;;
65469;SDS011;52067;50.710;14.492;2023-06-14T10:12:18;8.35;;;3.60;;
65469;SDS011;52067;50.710;14.492;2023-06-14T10:14:48;6.97;;;3.90;;
65469;SDS011;52067;50.710;14.492;2023-06-14T10:20:28;5.60;;;3.50;;
65469;SDS011;52067;50.710;14.492;2023-06-14T10:23:06;5.00;;;3.10;;
65469;SDS011;52067;50.710;14.492;2023-06-14T10:25:36;5.50;;;3.03;;
65469;SDS011;52067;50.710;14.492;2023-06-14T10:28:14;7.25;;;3.00;;
65469;SDS011;52067;50.710;14.492;2023-06-14T10:31:03;4.93;;;3.28;;
65469;SDS011;52067;50.710;14.492;2023-06-14T10:33:35;5.53;;;3.25;;
65469;SDS011;52067;50.710;14.492;2023-06-14T10:41:39;6.63;;;3.53;;
65469;SDS011;52067;50.710;14.492;2023-06-14T10:46:40;5.47;;;3.10;;
65469;SDS011;52067;50.710;14.492;2023-06-14T10:49:11;7.07;;;3.65;;
65469;SDS011;52067;50.710;14.492;2023-06-14T10:51:41;7.03;;;3.08;;
65469;SDS011;52067;50.710;14.492;2023-06-14T10:54:14;8.63;;;3.93;;
65469;SDS011;52067;50.710;14.492;2023-06-14T10:56:49;5.85;;;3.70;;
65469;SDS011;52067;50.710;14.492;2023-06-14T10:59:17;6.10;;;3.30;;
65469;SDS011;52067;50.710;14.492;2023-06-14T11:01:55;4.78;;;3.50;;
65469;SDS011;52067;50.710;14.492;2023-06-14T11:12:48;4.65;;;3.53;;
65469;SDS011;52067;50.710;14.492;2023-06-14T11:15:15;5.18;;;4.03;;
65469;SDS011;52067;50.710;14.492;2023-06-14T11:17:53;5.90;;;3.50;;
65469;SDS011;52067;50.710;14.492;2023-06-14T11:20:19;4.63;;;3.40;;
65469;SDS011;52067;50.710;14.492;2023-06-14T11:22:45;7.50;;;3.40;;
65469;SDS011;52067;50.710;14.492;2023-06-14T11:25:13;6.35;;;3.70;;
65469;SDS011;52067;50.710;14.492;2023-06-14T11:27:41;7.70;;;3.50;;
65469;SDS011;52067;50.710;14.492;2023-06-14T11:30:07;5.35;;;3.40;;
65469;SDS011;52067;50.710;14.492;2023-06-14T11:32:34;5.97;;;3.47;;
65469;SDS011;52067;50.710;14.492;2023-06-14T11:35:01;4.63;;;3.40;;
65469;SDS011;52067;50.710;14.492;2023-06-14T11:37:27;6.60;;;3.50;;
65469;SDS011;52067;50.710;14.492;2023-06-14T11:39:58;4.47;;;3.22;;
65469;SDS011;52067;50.710;14.492;2023-06-14T11:42:24;5.10;;;3.50;;
65469;SDS011;52067;50.710;14.492;2023-06-14T11:44:52;7.68;;;4.10;;
65469;SDS011;52067;50.710;14.492;2023-06-14T11:47:18;4.82;;;3.30;;
65469;SDS011;52067;50.710;14.492;2023-06-14T11:49:44;6.03;;;3.72;;
65469;SDS011;52067;50.710;14.492;2023-06-14T11:52:09;9.30;;;4.10;;
65469;SDS011;52067;50.710;14.492;2023-06-14T11:54:36;5.80;;;3.97;;
65469;SDS011;52067;50.710;14.492;2023-06-14T11:57:02;7.95;;;4.10;;
65469;SDS011;52067;50.710;14.492;2023-06-14T11:59:28;5.40;;;3.63;;
65469;SDS011;52067;50.710;14.492;2023-06-14T12:01:56;7.25;;;3.65;;
65469;SDS011;52067;50.710;14.492;2023-06-14T12:04:26;5.63;;;3.47;;
65469;SDS011;52067;50.710;14.492;2023-06-14T12:06:52;5.20;;;3.72;;
65469;SDS011;52067;50.710;14.492;2023-06-14T12:09:20;5.63;;;4.00;;
65469;SDS011;52067;50.710;14.492;2023-06-14T12:11:48;4.70;;;3.80;;
65469;SDS011;52067;50.710;14.492;2023-06-14T12:14:14;7.32;;;4.30;;
65469;SDS011;52067;50.710;14.492;2023-06-14T12:16:40;6.57;;;4.47;;
65469;SDS011;52067;50.710;14.492;2023-06-14T12:19:15;8.13;;;4.28;;
65469;SDS011;52067;50.710;14.492;2023-06-14T12:21:42;5.93;;;4.07;;
65469;SDS011;52067;50.710;14.492;2023-06-14T12:24:12;6.40;;;4.68;;
65469;SDS011;52067;50.710;14.492;2023-06-14T12:26:38;6.30;;;4.30;;
65469;SDS011;52067;50.710;14.492;2023-06-14T12:29:05;5.82;;;4.45;;
65469;SDS011;52067;50.710;14.492;2023-06-14T12:31:32;8.45;;;4.65;;
65469;SDS011;52067;50.710;14.492;2023-06-14T12:33:57;5.93;;;4.22;;
65469;SDS011;52067;50.710;14.492;2023-06-14T12:36:23;6.57;;;4.43;;
65469;SDS011;52067;50.710;14.492;2023-06-14T12:38:48;6.22;;;4.30;;
65469;SDS011;52067;50.710;14.492;2023-06-14T12:41:14;6.90;;;5.05;;
65469;SDS011;52067;50.710;14.492;2023-06-14T12:43:41;5.68;;;4.25;;
65469;SDS011;52067;50.710;14.492;2023-06-14T12:46:07;6.65;;;4.50;;
65469;SDS011;52067;50.710;14.492;2023-06-14T12:48:32;7.13;;;4.53;;
65469;SDS011;52067;50.710;14.492;2023-06-14T12:50:59;9.70;;;5.15;;
65469;SDS011;52067;50.710;14.492;2023-06-14T12:53:24;9.07;;;4.47;;
65469;SDS011;52067;50.710;14.492;2023-06-14T12:55:50;8.15;;;4.97;;
65469;SDS011;52067;50.710;14.492;2023-06-14T12:58:15;6.95;;;5.07;;
65469;SDS011;52067;50.710;14.492;2023-06-14T13:00:42;10.68;;;5.90;;
65469;SDS011;52067;50.710;14.492;2023-06-14T13:03:08;8.13;;;5.22;;
65469;SDS011;52067;50.710;14.492;2023-06-14T13:05:34;6.72;;;4.93;;
65469;SDS011;52067;50.710;14.492;2023-06-14T13:08:00;7.68;;;5.07;;
65469;SDS011;52067;50.710;14.492;2023-06-14T13:10:25;10.55;;;5.53;;
65469;SDS011;52067;50.710;14.492;2023-06-14T13:12:51;9.60;;;5.68;;
65469;SDS011;52067;50.710;14.492;2023-06-14T13:15:17;11.23;;;6.43;;
65469;SDS011;52067;50.710;14.492;2023-06-14T13:17:42;11.95;;;6.60;;
65469;SDS011;52067;50.710;14.492;2023-06-14T13:20:13;11.82;;;7.22;;
65469;SDS011;52067;50.710;14.492;2023-06-14T13:22:38;8.05;;;5.20;;
65469;SDS011;52067;50.710;14.492;2023-06-14T13:25:04;5.57;;;4.55;;
65469;SDS011;52067;50.710;14.492;2023-06-14T13:27:30;6.95;;;4.40;;
65469;SDS011;52067;50.710;14.492;2023-06-14T13:29:55;5.32;;;4.43;;
65469;SDS011;52067;50.710;14.492;2023-06-14T13:32:21;7.40;;;4.82;;
65469;SDS011;52067;50.710;14.492;2023-06-14T13:34:47;7.63;;;5.00;;
65469;SDS011;52067;50.710;14.492;2023-06-14T13:37:13;5.28;;;4.13;;
65469;SDS011;52067;50.710;14.492;2023-06-14T13:39:38;6.43;;;4.78;;
65469;SDS011;52067;50.710;14.492;2023-06-14T13:42:04;5.00;;;3.90;;
65469;SDS011;52067;50.710;14.492;2023-06-14T13:44:30;5.53;;;4.50;;
65469;SDS011;52067;50.710;14.492;2023-06-14T13:46:55;50.75;;;6.85;;
65469;SDS011;52067;50.710;14.492;2023-06-14T13:49:21;8.35;;;4.93;;
65469;SDS011;52067;50.710;14.492;2023-06-14T13:51:47;10.05;;;5.00;;
65469;SDS011;52067;50.710;14.492;2023-06-14T13:54:12;7.80;;;4.30;;
65469;SDS011;52067;50.710;14.492;2023-06-14T13:56:39;7.07;;;4.63;;
65469;SDS011;52067;50.710;14.492;2023-06-14T13:59:04;5.78;;;4.20;;
65469;SDS011;52067;50.710;14.492;2023-06-14T14:01:30;11.63;;;4.40;;
65469;SDS011;52067;50.710;14.492;2023-06-14T14:03:55;5.20;;;4.15;;
65469;SDS011;52067;50.710;14.492;2023-06-14T14:06:21;5.63;;;4.20;;
65469;SDS011;52067;50.710;14.492;2023-06-14T14:08:46;6.00;;;4.55;;
65469;SDS011;52067;50.710;14.492;2023-06-14T14:11:12;6.30;;;4.53;;
65469;SDS011;52067;50.710;14.492;2023-06-14T14:13:37;6.70;;;5.20;;
65469;SDS011;52067;50.710;14.492;2023-06-14T14:16:04;5.10;;;4.32;;
65469;SDS011;52067;50.710;14.492;2023-06-14T14:18:30;5.47;;;4.15;;
65469;SDS011;52067;50.710;14.492;2023-06-14T14:20:56;5.22;;;4.00;;
65469;SDS011;52067;50.710;14.492;2023-06-14T14:23:21;5.45;;;4.05;;
65469;SDS011;52067;50.710;14.492;2023-06-14T14:25:47;6.25;;;4.00;;
65469;SDS011;52067;50.710;14.492;2023-06-14T14:28:13;5.97;;;4.70;;
65469;SDS011;52067;50.710;14.492;2023-06-14T14:30:41;5.80;;;4.30;;
65469;SDS011;52067;50.710;14.492;2023-06-14T14:33:09;5.78;;;4.30;;
65469;SDS011;52067;50.710;14.492;2023-06-14T14:35:40;5.95;;;4.30;;
65469;SDS011;52067;50.710;14.492;2023-06-14T14:38:15;5.87;;;4.63;;
65469;SDS011;52067;50.710;14.492;2023-06-14T14:40:41;6.05;;;4.50;;
65469;SDS011;52067;50.710;14.492;2023-06-14T14:43:07;15.85;;;9.95;;
65469;SDS011;52067;50.710;14.492;2023-06-14T14:45:32;5.90;;;4.50;;
65469;SDS011;52067;50.710;14.492;2023-06-14T14:47:57;5.88;;;4.30;;
65469;SDS011;52067;50.710;14.492;2023-06-14T14:50:24;7.65;;;4.07;;
65469;SDS011;52067;50.710;14.492;2023-06-14T14:52:50;7.63;;;4.25;;
65469;SDS011;52067;50.710;14.492;2023-06-14T14:55:15;4.72;;;4.10;;